Time;durP1;ratioP1;P1;durP2;ratioP2;P2;SDS_P1;SDS_P2;PMS_P1;PMS_P2;Temp;Humidity;BMP_temperature;BMP_pressure;BME280_temperature;BME280_humidity;BME280_pressure;Samples;Min_cycle;Max_cycle;Signal;HPM_P1;HPM_P2
2022/06/16 00:01:47;;;;;;;4.22;3.72;;;;;;;;;;5042342;28;20252;-70
2022/06/16 00:04:13;;;;;;;4.50;4.10;;;;;;;;;;5042248;28;20496;-69
2022/06/16 00:06:40;;;;;;;4.38;3.88;;;;;;;;;;5041957;28;20221;-69
2022/06/16 00:09:06;;;;;;;5.13;4.07;;;;;;;;;;5041975;28;20198;-69
2022/06/16 00:11:32;;;;;;;5.50;4.20;;;;;;;;;;5041961;28;20194;-69
2022/06/16 00:13:58;;;;;;;4.13;3.72;;;;;;;;;;5041997;28;20217;-69
2022/06/16 00:16:25;;;;;;;4.18;3.88;;;;;;;;;;5042051;28;20440;-69
2022/06/16 00:18:52;;;;;;;4.10;3.80;;;;;;;;;;5042532;28;20198;-70
2022/06/16 00:21:19;;;;;;;4.63;3.80;;;;;;;;;;5042095;28;20229;-69
2022/06/16 00:23:45;;;;;;;4.38;4.05;;;;;;;;;;5041902;28;20200;-69
2022/06/16 00:26:13;;;;;;;4.60;4.00;;;;;;;;;;5042045;28;20206;-69
2022/06/16 00:28:40;;;;;;;5.28;3.63;;;;;;;;;;5042105;28;20244;-70
2022/06/16 00:31:07;;;;;;;8.00;4.05;;;;;;;;;;5041917;28;20204;-69
2022/06/16 00:33:33;;;;;;;4.47;4.18;;;;;;;;;;5041977;28;20390;-69
2022/06/16 00:36:01;;;;;;;4.90;3.75;;;;;;;;;;5041656;28;20198;-69
2022/06/16 00:38:27;;;;;;;4.95;3.70;;;;;;;;;;5041826;28;20212;-69
2022/06/16 00:40:54;;;;;;;4.20;3.90;;;;;;;;;;5041950;28;20198;-69
2022/06/16 00:43:20;;;;;;;4.80;4.13;;;;;;;;;;5042068;28;20200;-69
2022/06/16 00:45:49;;;;;;;4.38;3.95;;;;;;;;;;5041987;28;20197;-69
2022/06/16 00:48:17;;;;;;;4.13;3.70;;;;;;;;;;5041607;28;20268;-70
2022/06/16 00:50:45;;;;;;;4.78;3.60;;;;;;;;;;5042166;28;20198;-69
2022/06/16 00:53:13;;;;;;;4.10;3.78;;;;;;;;;;5041952;28;20229;-69
2022/06/16 00:55:39;;;;;;;4.00;3.70;;;;;;;;;;5041981;28;20207;-69
2022/06/16 00:58:07;;;;;;;4.30;4.00;;;;;;;;;;5041628;28;20198;-69
2022/06/16 01:00:34;;;;;;;4.10;3.70;;;;;;;;;;5041698;28;20513;-69
2022/06/16 01:03:00;;;;;;;4.25;3.78;;;;;;;;;;5041781;28;20527;-69
2022/06/16 01:05:25;;;;;;;4.10;3.83;;;;;;;;;;5041362;28;20226;-70
2022/06/16 01:07:53;;;;;;;4.40;4.10;;;;;;;;;;5041325;28;20194;-69
2022/06/16 01:10:20;;;;;;;4.22;3.65;;;;;;;;;;5043066;28;20197;-69
2022/06/16 01:15:53;;;;;;;4.93;4.18;;;;;;;;;;5045194;28;20192;-70
2022/06/16 01:18:25;;;;;;;6.40;4.10;;;;;;;;;;5044858;28;20198;-69
2022/06/16 01:20:53;;;;;;;5.30;3.88;;;;;;;;;;5044915;28;20203;-69
2022/06/16 01:23:38;;;;;;;6.10;4.22;;;;;;;;;;5044993;28;20201;-69
2022/06/16 01:26:14;;;;;;;4.10;3.78;;;;;;;;;;5044541;28;20198;-69
2022/06/16 01:28:52;;;;;;;4.35;3.95;;;;;;;;;;5044847;28;20209;-69
2022/06/16 01:31:21;;;;;;;8.63;3.88;;;;;;;;;;5044785;28;20202;-69
2022/06/16 01:33:51;;;;;;;4.55;4.25;;;;;;;;;;5044715;28;20293;-69
2022/06/16 01:36:21;;;;;;;4.70;4.30;;;;;;;;;;5044516;28;20204;-69
2022/06/16 01:38:53;;;;;;;6.80;4.13;;;;;;;;;;5044661;28;20210;-69
2022/06/16 01:41:22;;;;;;;7.68;4.15;;;;;;;;;;5044580;28;20197;-69
2022/06/16 01:43:53;;;;;;;5.28;4.43;;;;;;;;;;5044634;28;20194;-69
2022/06/16 01:46:22;;;;;;;5.30;4.38;;;;;;;;;;5044283;28;20508;-69
2022/06/16 01:48:51;;;;;;;7.40;3.75;;;;;;;;;;5044491;28;20209;-69
2022/06/16 01:51:20;;;;;;;5.45;4.00;;;;;;;;;;5044644;28;20205;-69
2022/06/16 01:53:47;;;;;;;4.38;4.05;;;;;;;;;;5044422;28;20559;-69
2022/06/16 01:56:16;;;;;;;6.03;4.65;;;;;;;;;;5044141;28;20210;-69
2022/06/16 01:58:44;;;;;;;4.88;3.92;;;;;;;;;;5044320;28;20424;-70
2022/06/16 02:01:15;;;;;;;4.60;4.20;;;;;;;;;;5044393;28;20653;-69
2022/06/16 02:03:43;;;;;;;4.47;4.13;;;;;;;;;;5044381;28;20214;-69
2022/06/16 02:06:13;;;;;;;6.15;4.57;;;;;;;;;;5044185;28;20233;-69
2022/06/16 02:08:42;;;;;;;4.70;4.22;;;;;;;;;;5043982;28;20521;-70
2022/06/16 02:11:13;;;;;;;4.57;4.18;;;;;;;;;;5044177;28;20202;-69
2022/06/16 02:13:42;;;;;;;5.28;4.20;;;;;;;;;;5044068;28;20230;-69
2022/06/16 02:16:09;;;;;;;4.57;4.18;;;;;;;;;;5043915;28;20205;-69
2022/06/16 02:18:39;;;;;;;8.90;4.32;;;;;;;;;;5044044;28;20198;-70
2022/06/16 02:21:09;;;;;;;4.50;4.20;;;;;;;;;;5043184;28;20215;-69
2022/06/16 02:23:35;;;;;;;6.45;4.40;;;;;;;;;;5043560;28;20209;-69
2022/06/16 02:26:02;;;;;;;5.38;3.90;;;;;;;;;;5043608;28;20343;-69
2022/06/16 02:28:28;;;;;;;5.47;4.45;;;;;;;;;;5043899;28;20205;-69
2022/06/16 02:31:04;;;;;;;4.32;4.03;;;;;;;;;;5043796;28;20222;-69
2022/06/16 02:33:35;;;;;;;5.63;5.00;;;;;;;;;;5043716;28;20540;-69
2022/06/16 02:36:05;;;;;;;5.03;4.50;;;;;;;;;;5043429;28;20528;-69
2022/06/16 02:38:43;;;;;;;5.78;4.85;;;;;;;;;;5043415;28;20208;-69
2022/06/16 02:41:15;;;;;;;6.50;4.65;;;;;;;;;;5043896;28;20205;-69
2022/06/16 02:43:46;;;;;;;5.07;4.70;;;;;;;;;;5043481;28;20497;-69
2022/06/16 02:46:15;;;;;;;4.55;4.32;;;;;;;;;;5043229;28;20197;-69
2022/06/16 02:48:43;;;;;;;4.78;4.35;;;;;;;;;;5043311;28;20224;-69
2022/06/16 02:51:13;;;;;;;4.82;4.38;;;;;;;;;;5043313;28;20197;-69
2022/06/16 02:53:43;;;;;;;5.43;4.70;;;;;;;;;;5043420;28;20417;-69
2022/06/16 02:56:11;;;;;;;5.10;4.60;;;;;;;;;;5043238;28;20249;-69
2022/06/16 02:58:40;;;;;;;5.18;4.75;;;;;;;;;;5043260;28;20204;-69
2022/06/16 03:01:07;;;;;;;5.88;4.60;;;;;;;;;;5043045;28;20336;-69
2022/06/16 03:03:34;;;;;;;4.90;4.35;;;;;;;;;;5042956;28;20539;-69
2022/06/16 03:06:00;;;;;;;4.90;4.50;;;;;;;;;;5042739;28;20239;-69
2022/06/16 03:08:29;;;;;;;4.93;4.38;;;;;;;;;;5043109;28;20198;-69
2022/06/16 03:10:58;;;;;;;5.53;5.03;;;;;;;;;;5042972;28;20197;-69
2022/06/16 03:13:25;;;;;;;5.40;4.93;;;;;;;;;;5042802;28;20225;-69
2022/06/16 03:15:53;;;;;;;5.55;4.93;;;;;;;;;;5043156;28;20321;-70
2022/06/16 03:18:20;;;;;;;5.25;4.75;;;;;;;;;;5042786;28;20571;-70
2022/06/16 03:20:46;;;;;;;5.22;4.82;;;;;;;;;;5042809;28;20198;-69
2022/06/16 03:23:13;;;;;;;5.30;4.80;;;;;;;;;;5042765;28;20201;-69
2022/06/16 03:25:41;;;;;;;4.72;4.40;;;;;;;;;;5042611;28;20209;-69
2022/06/16 03:28:08;;;;;;;5.13;4.72;;;;;;;;;;5042457;28;20202;-69
2022/06/16 03:30:35;;;;;;;7.78;3.97;;;;;;;;;;5042599;28;20520;-69
2022/06/16 03:33:01;;;;;;;5.10;4.60;;;;;;;;;;5042320;28;20198;-69
2022/06/16 03:35:27;;;;;;;5.43;4.80;;;;;;;;;;5042676;28;20197;-69
2022/06/16 03:37:53;;;;;;;4.97;4.57;;;;;;;;;;5042405;28;20197;-69
2022/06/16 03:40:20;;;;;;;8.38;4.53;;;;;;;;;;5042481;28;20620;-69
2022/06/16 03:42:48;;;;;;;11.02;5.05;;;;;;;;;;5042376;28;20556;-69
2022/06/16 03:45:14;;;;;;;5.47;4.95;;;;;;;;;;5042242;28;20509;-69
2022/06/16 03:47:40;;;;;;;5.30;4.90;;;;;;;;;;5042279;28;20299;-69
2022/06/16 03:50:07;;;;;;;6.10;5.47;;;;;;;;;;5042423;28;20202;-69
2022/06/16 03:52:34;;;;;;;5.68;4.80;;;;;;;;;;5042573;28;20202;-70
2022/06/16 03:55:00;;;;;;;5.55;5.00;;;;;;;;;;5042093;28;20232;-69
2022/06/16 03:57:26;;;;;;;6.15;5.10;;;;;;;;;;5041949;28;20400;-69
2022/06/16 03:59:54;;;;;;;6.10;5.60;;;;;;;;;;5042094;28;20454;-70
2022/06/16 04:02:20;;;;;;;6.18;5.25;;;;;;;;;;5042325;28;20197;-69
2022/06/16 04:04:46;;;;;;;5.32;4.80;;;;;;;;;;5042133;28;20212;-70
2022/06/16 04:07:12;;;;;;;5.07;4.70;;;;;;;;;;5041802;28;20204;-69
2022/06/16 04:09:39;;;;;;;5.63;5.10;;;;;;;;;;5042142;28;20509;-70
2022/06/16 04:12:06;;;;;;;4.72;4.32;;;;;;;;;;5042000;28;20423;-69
2022/06/16 04:14:32;;;;;;;5.43;5.00;;;;;;;;;;5041939;28;20296;-70
2022/06/16 04:16:59;;;;;;;5.20;4.72;;;;;;;;;;5041659;28;20202;-71
2022/06/16 04:19:26;;;;;;;5.95;4.18;;;;;;;;;;5042145;28;20420;-71
2022/06/16 04:21:53;;;;;;;8.32;4.53;;;;;;;;;;5041991;28;20204;-71
2022/06/16 04:24:20;;;;;;;5.30;4.80;;;;;;;;;;5042525;28;20216;-71
2022/06/16 04:26:47;;;;;;;5.75;4.75;;;;;;;;;;5041692;28;20236;-71
2022/06/16 04:29:14;;;;;;;7.10;4.82;;;;;;;;;;5042075;28;20505;-71
2022/06/16 04:31:41;;;;;;;5.40;4.63;;;;;;;;;;5041959;28;20498;-71
2022/06/16 04:34:09;;;;;;;6.57;5.28;;;;;;;;;;5042051;28;20218;-71
2022/06/16 04:36:36;;;;;;;5.75;4.72;;;;;;;;;;5041713;28;20509;-71
2022/06/16 04:39:02;;;;;;;8.60;5.30;;;;;;;;;;5041885;28;20209;-71
2022/06/16 04:41:28;;;;;;;4.88;4.45;;;;;;;;;;5041861;28;20206;-71
2022/06/16 04:43:55;;;;;;;5.38;4.38;;;;;;;;;;5041970;28;20201;-71
2022/06/16 04:46:21;;;;;;;5.47;4.30;;;;;;;;;;5044514;28;20400;-71
2022/06/16 04:48:48;;;;;;;6.43;4.85;;;;;;;;;;5045790;28;20208;-71
2022/06/16 04:51:16;;;;;;;4.65;4.25;;;;;;;;;;5045665;28;20205;-71
2022/06/16 04:53:43;;;;;;;5.95;4.78;;;;;;;;;;5045490;28;20260;-71
2022/06/16 04:56:09;;;;;;;4.93;4.57;;;;;;;;;;5045515;28;20392;-71
2022/06/16 04:58:36;;;;;;;5.50;4.95;;;;;;;;;;5045571;28;20388;-71
2022/06/16 05:01:04;;;;;;;5.40;4.85;;;;;;;;;;5045557;28;20509;-71
2022/06/16 05:03:30;;;;;;;8.63;5.10;;;;;;;;;;5045520;28;20374;-71
2022/06/16 05:05:57;;;;;;;7.03;5.15;;;;;;;;;;5045175;28;20231;-71
2022/06/16 05:08:24;;;;;;;5.00;4.55;;;;;;;;;;5045075;28;20217;-71
2022/06/16 05:10:51;;;;;;;5.70;5.00;;;;;;;;;;5045272;28;20208;-71
2022/06/16 05:13:19;;;;;;;5.35;4.82;;;;;;;;;;5045263;28;20513;-71
2022/06/16 05:15:45;;;;;;;6.18;4.90;;;;;;;;;;5045234;28;20222;-71
2022/06/16 05:18:13;;;;;;;6.45;4.47;;;;;;;;;;5045201;28;20204;-71
2022/06/16 05:20:41;;;;;;;4.93;4.40;;;;;;;;;;5045073;28;20632;-71
2022/06/16 05:23:08;;;;;;;5.00;4.70;;;;;;;;;;5044841;28;20225;-71
2022/06/16 05:25:35;;;;;;;7.93;5.47;;;;;;;;;;5045102;28;20202;-71
2022/06/16 05:28:02;;;;;;;4.72;4.32;;;;;;;;;;5044789;28;20416;-71
2022/06/16 05:30:28;;;;;;;4.70;4.40;;;;;;;;;;5044778;28;20204;-71
2022/06/16 05:32:54;;;;;;;5.55;4.50;;;;;;;;;;5044992;28;20465;-71
2022/06/16 05:35:20;;;;;;;4.80;4.40;;;;;;;;;;5044646;28;20225;-71
2022/06/16 05:37:47;;;;;;;6.20;4.40;;;;;;;;;;5044447;28;20201;-71
2022/06/16 05:40:13;;;;;;;6.65;4.25;;;;;;;;;;5044906;28;20204;-71
2022/06/16 05:42:41;;;;;;;7.13;4.50;;;;;;;;;;5044785;28;20398;-71
2022/06/16 05:45:08;;;;;;;4.15;3.85;;;;;;;;;;5044829;28;20269;-71
2022/06/16 05:47:36;;;;;;;5.15;4.38;;;;;;;;;;5044306;28;20201;-71
2022/06/16 05:50:02;;;;;;;5.63;4.68;;;;;;;;;;5044437;28;20505;-71
2022/06/16 05:52:28;;;;;;;6.93;4.47;;;;;;;;;;5044674;28;20198;-71
2022/06/16 05:54:55;;;;;;;4.30;4.00;;;;;;;;;;5044562;28;20226;-71
2022/06/16 05:57:21;;;;;;;5.18;4.53;;;;;;;;;;5043966;28;20198;-71
2022/06/16 05:59:49;;;;;;;4.22;3.88;;;;;;;;;;5044323;28;20448;-71
2022/06/16 06:02:17;;;;;;;6.53;5.82;;;;;;;;;;5044309;28;20389;-71
2022/06/16 06:04:43;;;;;;;7.03;5.28;;;;;;;;;;5043949;28;20208;-71
2022/06/16 06:07:09;;;;;;;7.38;6.68;;;;;;;;;;5044069;28;20206;-71
2022/06/16 06:18:03;;;;;;;4.75;4.30;;;;;;;;;;5043779;28;20228;-71
2022/06/16 06:20:29;;;;;;;5.72;4.90;;;;;;;;;;5044109;28;20536;-71
2022/06/16 06:22:55;;;;;;;5.10;3.90;;;;;;;;;;5044057;28;20430;-71
2022/06/16 06:25:21;;;;;;;4.82;4.38;;;;;;;;;;5043730;28;20198;-71
2022/06/16 06:27:48;;;;;;;4.50;4.13;;;;;;;;;;5043588;28;20202;-71
2022/06/16 06:30:17;;;;;;;4.05;3.80;;;;;;;;;;5043860;28;20367;-71
2022/06/16 06:32:43;;;;;;;7.00;5.60;;;;;;;;;;5043654;28;20371;-71
2022/06/16 06:35:10;;;;;;;4.80;4.40;;;;;;;;;;5043679;28;20217;-71
2022/06/16 06:37:36;;;;;;;4.45;4.13;;;;;;;;;;5043328;28;20502;-71
2022/06/16 06:40:03;;;;;;;3.90;3.70;;;;;;;;;;5043428;28;20237;-71
2022/06/16 06:42:29;;;;;;;5.80;5.30;;;;;;;;;;5043706;28;20396;-71
2022/06/16 06:44:56;;;;;;;6.18;4.10;;;;;;;;;;5043606;28;20193;-71
2022/06/16 06:47:24;;;;;;;4.28;3.90;;;;;;;;;;5043271;28;20429;-71
2022/06/16 06:49:51;;;;;;;7.85;3.90;;;;;;;;;;5043332;28;20198;-71
2022/06/16 06:52:18;;;;;;;4.80;3.80;;;;;;;;;;5043307;28;20225;-71
2022/06/16 06:54:45;;;;;;;3.80;3.50;;;;;;;;;;5043220;28;20526;-71
2022/06/16 06:57:12;;;;;;;4.35;3.55;;;;;;;;;;5043234;28;20220;-71
2022/06/16 06:59:39;;;;;;;5.15;3.45;;;;;;;;;;5043331;28;20201;-71
2022/06/16 07:02:06;;;;;;;4.50;3.30;;;;;;;;;;5043204;28;20201;-71
2022/06/16 07:04:33;;;;;;;3.65;3.35;;;;;;;;;;5043022;28;20205;-71
2022/06/16 07:07:00;;;;;;;3.55;3.22;;;;;;;;;;5042739;28;20197;-71
2022/06/16 07:09:26;;;;;;;3.80;3.15;;;;;;;;;;5042996;28;20242;-71
2022/06/16 07:11:52;;;;;;;3.47;3.25;;;;;;;;;;5043011;28;20268;-71
2022/06/16 07:14:18;;;;;;;5.32;3.45;;;;;;;;;;5042993;28;20198;-71
2022/06/16 07:16:45;;;;;;;4.70;3.53;;;;;;;;;;5042881;28;20204;-71
2022/06/16 07:19:11;;;;;;;3.20;3.00;;;;;;;;;;5042776;28;20204;-71
2022/06/16 07:21:38;;;;;;;5.18;3.33;;;;;;;;;;5042817;28;20443;-71
2022/06/16 07:24:05;;;;;;;4.32;3.20;;;;;;;;;;5042628;28;20208;-71
2022/06/16 07:26:32;;;;;;;3.67;3.35;;;;;;;;;;5042638;28;20393;-71
2022/06/16 07:29:00;;;;;;;3.88;2.97;;;;;;;;;;5042723;28;20205;-71
2022/06/16 07:31:26;;;;;;;6.40;3.55;;;;;;;;;;5042791;28;20198;-71
2022/06/16 07:33:52;;;;;;;6.00;3.08;;;;;;;;;;5042598;28;20202;-71
2022/06/16 07:36:19;;;;;;;3.85;3.40;;;;;;;;;;5042149;28;20228;-71
2022/06/16 07:38:47;;;;;;;4.53;3.88;;;;;;;;;;5042490;28;20201;-71
2022/06/16 07:43:56;;;;;;;8.25;6.32;;;;;;;;;;5031697;28;20411;-71
2022/06/16 07:46:23;;;;;;;7.93;3.80;;;;;;;;;;5042240;28;20197;-71
2022/06/16 07:48:51;;;;;;;2.92;2.65;;;;;;;;;;5042139;28;20197;-71
2022/06/16 07:51:17;;;;;;;3.45;3.20;;;;;;;;;;5042610;28;20449;-71
2022/06/16 07:53:43;;;;;;;7.53;3.25;;;;;;;;;;5042456;28;20197;-71
2022/06/16 07:56:11;;;;;;;5.93;3.45;;;;;;;;;;5042245;28;20244;-71
2022/06/16 07:58:39;;;;;;;4.40;3.42;;;;;;;;;;5042295;28;20204;-71
2022/06/16 08:01:07;;;;;;;5.82;4.43;;;;;;;;;;5042277;28;20236;-71
2022/06/16 08:03:33;;;;;;;4.78;3.70;;;;;;;;;;5042129;28;20205;-71
2022/06/16 08:05:59;;;;;;;3.70;3.38;;;;;;;;;;5042169;28;20228;-71
2022/06/16 08:08:26;;;;;;;3.80;3.53;;;;;;;;;;5042191;28;20204;-71
2022/06/16 08:10:53;;;;;;;3.72;3.35;;;;;;;;;;5042141;28;20204;-71
2022/06/16 08:13:21;;;;;;;3.58;3.38;;;;;;;;;;5042157;28;20508;-71
2022/06/16 08:15:48;;;;;;;4.65;3.22;;;;;;;;;;5042006;28;20225;-71
2022/06/16 08:18:17;;;;;;;3.65;3.42;;;;;;;;;;5042172;28;20225;-72
2022/06/16 08:20:44;;;;;;;4.32;3.30;;;;;;;;;;5046098;28;20259;-71
2022/06/16 08:23:11;;;;;;;3.85;3.17;;;;;;;;;;5046167;28;20210;-71
2022/06/16 08:25:37;;;;;;;4.35;3.75;;;;;;;;;;5046192;28;20200;-71
2022/06/16 08:28:04;;;;;;;3.65;3.35;;;;;;;;;;5045837;28;20385;-71
2022/06/16 08:30:32;;;;;;;7.32;3.58;;;;;;;;;;5045925;28;20205;-71
2022/06/16 08:32:59;;;;;;;4.63;3.40;;;;;;;;;;5046363;28;20201;-71
2022/06/16 08:35:25;;;;;;;3.97;3.72;;;;;;;;;;5045963;28;20559;-71
2022/06/16 08:37:52;;;;;;;4.82;3.70;;;;;;;;;;5045293;28;20201;-71
2022/06/16 08:40:19;;;;;;;5.93;3.28;;;;;;;;;;5045555;28;20197;-71
2022/06/16 08:42:50;;;;;;;4.65;3.90;;;;;;;;;;5045321;28;20197;-71
2022/06/16 08:45:22;;;;;;;5.97;3.13;;;;;;;;;;5045370;28;20536;-71
2022/06/16 08:47:52;;;;;;;3.30;3.00;;;;;;;;;;5045245;28;20220;-71
2022/06/16 08:50:24;;;;;;;4.63;3.30;;;;;;;;;;5045577;28;20420;-71
2022/06/16 08:52:56;;;;;;;4.40;3.58;;;;;;;;;;5045327;28;20204;-71
2022/06/16 08:55:26;;;;;;;4.47;3.40;;;;;;;;;;5045101;28;20401;-71
2022/06/16 08:57:55;;;;;;;4.55;3.40;;;;;;;;;;5044894;28;20202;-72
2022/06/16 09:00:24;;;;;;;3.78;3.15;;;;;;;;;;5045065;28;20197;-71
2022/06/16 09:02:53;;;;;;;5.88;3.35;;;;;;;;;;5044801;28;20224;-71
2022/06/16 09:05:32;;;;;;;7.55;3.03;;;;;;;;;;5044611;28;20221;-71
2022/06/16 09:08:03;;;;;;;7.10;3.03;;;;;;;;;;5044396;28;20201;-71
2022/06/16 09:10:33;;;;;;;5.75;3.25;;;;;;;;;;5044612;28;20197;-71
2022/06/16 09:13:09;;;;;;;5.40;3.60;;;;;;;;;;5045371;28;20197;-71
2022/06/16 09:15:39;;;;;;;3.25;3.00;;;;;;;;;;5045238;28;20224;-71
2022/06/16 09:18:24;;;;;;;3.30;2.97;;;;;;;;;;5045122;28;20204;-71
2022/06/16 09:20:54;;;;;;;5.75;3.25;;;;;;;;;;5044928;28;20513;-71
2022/06/16 09:23:31;;;;;;;5.95;2.70;;;;;;;;;;5044890;28;20458;-71
2022/06/16 09:26:08;;;;;;;8.35;2.67;;;;;;;;;;5044446;28;20196;-71
2022/06/16 09:28:38;;;;;;;4.50;2.80;;;;;;;;;;5044585;28;20219;-71
2022/06/16 09:31:07;;;;;;;3.55;3.20;;;;;;;;;;5043900;28;20509;-71
2022/06/16 09:33:37;;;;;;;4.30;2.42;;;;;;;;;;5044388;28;20197;-71
2022/06/16 09:36:06;;;;;;;4.82;2.97;;;;;;;;;;5044013;28;20224;-72
2022/06/16 09:38:36;;;;;;;7.05;3.40;;;;;;;;;;5044003;28;20444;-72
2022/06/16 09:41:05;;;;;;;4.88;3.00;;;;;;;;;;5044114;28;20198;-71
2022/06/16 09:43:33;;;;;;;2.92;2.60;;;;;;;;;;5043945;28;20212;-72
2022/06/16 09:46:01;;;;;;;4.90;2.42;;;;;;;;;;5044125;28;20200;-72
2022/06/16 09:48:29;;;;;;;5.90;2.72;;;;;;;;;;5044009;28;20205;-72
2022/06/16 09:50:59;;;;;;;5.70;2.75;;;;;;;;;;5044092;28;20400;-71
2022/06/16 09:53:30;;;;;;;3.10;2.80;;;;;;;;;;5043927;28;20197;-72
2022/06/16 09:56:00;;;;;;;3.20;2.85;;;;;;;;;;5043645;28;20217;-72
2022/06/16 09:58:30;;;;;;;3.97;2.85;;;;;;;;;;5043950;28;20204;-72
2022/06/16 10:00:58;;;;;;;4.78;3.20;;;;;;;;;;5043827;28;20235;-72
2022/06/16 10:03:26;;;;;;;3.42;3.10;;;;;;;;;;5043832;28;20384;-72
2022/06/16 10:06:01;;;;;;;3.63;2.83;;;;;;;;;;5043820;28;20228;-72
2022/06/16 10:08:31;;;;;;;3.33;2.80;;;;;;;;;;5043679;28;20208;-72
2022/06/16 10:11:04;;;;;;;3.17;2.95;;;;;;;;;;5043690;28;20198;-72
2022/06/16 10:13:34;;;;;;;4.55;3.03;;;;;;;;;;5043692;28;20541;-72
2022/06/16 10:16:03;;;;;;;3.70;3.25;;;;;;;;;;5043408;28;20281;-71
2022/06/16 10:18:29;;;;;;;4.97;3.13;;;;;;;;;;5043621;28;20387;-72
2022/06/16 10:20:55;;;;;;;3.28;2.97;;;;;;;;;;5043634;28;20273;-71
2022/06/16 10:23:25;;;;;;;4.22;2.90;;;;;;;;;;5044136;28;20204;-72
2022/06/16 10:25:54;;;;;;;4.70;3.13;;;;;;;;;;5044030;28;20212;-72
2022/06/16 10:28:24;;;;;;;5.88;3.13;;;;;;;;;;5043741;28;20212;-72
2022/06/16 10:30:50;;;;;;;4.22;2.60;;;;;;;;;;5043932;28;20197;-71
2022/06/16 10:33:18;;;;;;;3.00;2.67;;;;;;;;;;5043680;28;20504;-72
2022/06/16 10:35:47;;;;;;;3.25;2.95;;;;;;;;;;5043878;28;20217;-71
2022/06/16 10:38:20;;;;;;;4.53;3.13;;;;;;;;;;5043721;28;20228;-71
2022/06/16 10:40:48;;;;;;;3.05;2.83;;;;;;;;;;5043640;28;20504;-71
2022/06/16 10:43:15;;;;;;;6.32;2.97;;;;;;;;;;5042731;28;20189;-72
2022/06/16 10:45:42;;;;;;;6.90;3.20;;;;;;;;;;5043495;28;20207;-71
2022/06/16 10:48:12;;;;;;;3.50;2.92;;;;;;;;;;5043036;28;20209;-72
2022/06/16 10:50:40;;;;;;;4.70;2.92;;;;;;;;;;5043586;28;20197;-71
2022/06/16 10:53:15;;;;;;;4.65;3.05;;;;;;;;;;5043150;28;20201;-72
2022/06/16 10:55:43;;;;;;;4.43;3.10;;;;;;;;;;5043194;28;20217;-72
2022/06/16 10:58:16;;;;;;;4.63;2.75;;;;;;;;;;5043169;28;20535;-71
2022/06/16 11:00:42;;;;;;;8.07;3.13;;;;;;;;;;5043147;28;20396;-71
2022/06/16 11:03:15;;;;;;;7.47;2.88;;;;;;;;;;5043333;28;20204;-72
2022/06/16 11:05:49;;;;;;;4.47;3.13;;;;;;;;;;5043017;28;20471;-71
2022/06/16 11:08:15;;;;;;;5.75;2.70;;;;;;;;;;5042796;28;20205;-71
2022/06/16 11:10:50;;;;;;;5.60;2.83;;;;;;;;;;5042960;28;20205;-72
2022/06/16 11:13:21;;;;;;;6.40;3.20;;;;;;;;;;5043142;28;20204;-71
2022/06/16 11:15:48;;;;;;;7.45;2.90;;;;;;;;;;5042963;28;20239;-72
2022/06/16 11:18:17;;;;;;;6.07;2.60;;;;;;;;;;5042530;28;20200;-72
2022/06/16 11:20:44;;;;;;;4.68;2.92;;;;;;;;;;5043344;28;20203;-72
2022/06/16 11:23:25;;;;;;;7.95;2.45;;;;;;;;;;5042982;28;20372;-72
2022/06/16 11:25:55;;;;;;;6.72;2.92;;;;;;;;;;5043195;28;20489;-72
2022/06/16 11:28:23;;;;;;;6.55;2.78;;;;;;;;;;5042549;28;20197;-72
2022/06/16 11:30:58;;;;;;;5.25;2.17;;;;;;;;;;5042716;28;20212;-72
2022/06/16 11:36:08;;;;;;;3.55;2.58;;;;;;;;;;5042807;28;20438;-72
2022/06/16 11:38:37;;;;;;;6.13;2.75;;;;;;;;;;5042646;28;20267;-71
2022/06/16 11:41:04;;;;;;;5.65;2.70;;;;;;;;;;5042497;28;20208;-72
2022/06/16 11:43:45;;;;;;;5.60;2.25;;;;;;;;;;5042490;28;20561;-72
2022/06/16 11:46:19;;;;;;;3.42;2.13;;;;;;;;;;5041149;28;20194;-72
2022/06/16 11:48:51;;;;;;;4.07;1.90;;;;;;;;;;5042549;28;20448;-72
2022/06/16 11:51:22;;;;;;;5.40;2.63;;;;;;;;;;5042350;28;20198;-72
2022/06/16 11:53:56;;;;;;;3.30;2.05;;;;;;;;;;5042290;28;20204;-72
2022/06/16 11:56:28;;;;;;;4.05;2.20;;;;;;;;;;5041955;28;20213;-72
2022/06/16 11:59:06;;;;;;;2.58;2.38;;;;;;;;;;5042797;28;20197;-72
2022/06/16 12:01:38;;;;;;;4.28;2.40;;;;;;;;;;5042660;28;20203;-72
2022/06/16 12:04:22;;;;;;;9.65;2.30;;;;;;;;;;5042072;28;20276;-72
2022/06/16 12:06:59;;;;;;;3.65;2.10;;;;;;;;;;5041852;28;20222;-72
2022/06/16 12:09:29;;;;;;;2.25;2.05;;;;;;;;;;5042227;28;20196;-71
2022/06/16 12:11:58;;;;;;;8.25;2.40;;;;;;;;;;5042186;28;20201;-72
2022/06/16 12:14:28;;;;;;;4.05;2.30;;;;;;;;;;5042198;28;20505;-72
2022/06/16 12:17:00;;;;;;;8.38;2.63;;;;;;;;;;5041867;28;20532;-72
2022/06/16 12:19:32;;;;;;;2.88;2.38;;;;;;;;;;5042039;28;20205;-72
2022/06/16 12:22:02;;;;;;;3.95;2.20;;;;;;;;;;5042101;28;20185;-72
2022/06/16 12:24:32;;;;;;;5.20;2.38;;;;;;;;;;5042105;28;20201;-72
2022/06/16 12:27:00;;;;;;;3.17;2.55;;;;;;;;;;5041979;28;20208;-71
2022/06/16 12:29:32;;;;;;;2.40;2.10;;;;;;;;;;5041900;28;20204;-72
2022/06/16 12:32:05;;;;;;;3.55;2.28;;;;;;;;;;5041978;28;20429;-72
2022/06/16 12:34:35;;;;;;;3.88;2.13;;;;;;;;;;5041875;28;20364;-72
2022/06/16 12:37:04;;;;;;;7.25;2.47;;;;;;;;;;5041791;28;20224;-72
2022/06/16 12:39:32;;;;;;;3.08;2.17;;;;;;;;;;5041768;28;20197;-72
2022/06/16 12:42:02;;;;;;;5.13;2.00;;;;;;;;;;5041980;28;20197;-72
2022/06/16 12:44:30;;;;;;;3.58;2.13;;;;;;;;;;5041734;28;20198;-72
2022/06/16 12:47:00;;;;;;;3.45;2.00;;;;;;;;;;5041475;28;20208;-72
2022/06/16 12:49:29;;;;;;;2.30;2.10;;;;;;;;;;5041955;28;20220;-72
2022/06/16 12:51:57;;;;;;;2.95;2.15;;;;;;;;;;5041778;28;20203;-72
2022/06/16 12:54:25;;;;;;;5.18;1.90;;;;;;;;;;5041642;28;20197;-71
2022/06/16 12:56:55;;;;;;;2.58;1.95;;;;;;;;;;5041273;28;20224;-71
2022/06/16 12:59:24;;;;;;;4.43;2.00;;;;;;;;;;5041551;28;20204;-72
2022/06/16 13:01:53;;;;;;;3.58;2.40;;;;;;;;;;5041628;28;20197;-72
2022/06/16 13:04:23;;;;;;;3.50;2.03;;;;;;;;;;5041533;28;20201;-72
2022/06/16 13:06:51;;;;;;;2.83;2.20;;;;;;;;;;5043439;28;20409;-72
2022/06/16 13:09:17;;;;;;;3.20;2.13;;;;;;;;;;5045267;28;20222;-72
2022/06/16 13:11:45;;;;;;;1.73;1.63;;;;;;;;;;5045092;28;20197;-72
2022/06/16 13:14:14;;;;;;;3.35;1.83;;;;;;;;;;5045166;28;20385;-72
2022/06/16 13:16:41;;;;;;;2.40;1.90;;;;;;;;;;5045103;28;20525;-72
2022/06/16 13:19:09;;;;;;;2.45;1.80;;;;;;;;;;5045145;28;20198;-72
2022/06/16 13:21:37;;;;;;;3.55;1.63;;;;;;;;;;5045107;28;20197;-72
2022/06/16 13:24:10;;;;;;;8.18;2.33;;;;;;;;;;5044981;28;20204;-72
2022/06/16 13:26:40;;;;;;;3.80;1.95;;;;;;;;;;5045037;28;20193;-72
2022/06/16 13:29:15;;;;;;;2.55;2.25;;;;;;;;;;5044995;28;20202;-72
2022/06/16 13:31:56;;;;;;;5.38;2.47;;;;;;;;;;5044988;28;20267;-72
2022/06/16 13:34:41;;;;;;;5.82;1.95;;;;;;;;;;5044724;28;20197;-72
2022/06/16 13:37:07;;;;;;;2.03;1.80;;;;;;;;;;5044452;28;20228;-72
2022/06/16 13:39:49;;;;;;;3.92;2.00;;;;;;;;;;5044790;28;20251;-72
2022/06/16 13:42:19;;;;;;;3.53;1.92;;;;;;;;;;5043497;28;20504;-72
2022/06/16 13:45:16;;;;;;;10.05;1.67;;;;;;;;;;5044637;28;20194;-72
2022/06/16 13:47:43;;;;;;;2.35;1.70;;;;;;;;;;5044455;28;20194;-71
2022/06/16 13:50:11;;;;;;;4.50;1.88;;;;;;;;;;5044603;28;20204;-72
2022/06/16 13:52:40;;;;;;;3.30;1.70;;;;;;;;;;5044608;28;20422;-71
2022/06/16 13:55:12;;;;;;;4.32;1.77;;;;;;;;;;5044509;28;20204;-72
2022/06/16 13:57:39;;;;;;;2.33;1.80;;;;;;;;;;5044063;28;20209;-72
2022/06/16 14:00:08;;;;;;;3.50;1.80;;;;;;;;;;5044656;28;20196;-72
2022/06/16 14:02:52;;;;;;;2.10;1.70;;;;;;;;;;5044461;28;20205;-72
2022/06/16 14:05:24;;;;;;;6.82;1.90;;;;;;;;;;5044112;28;20248;-73
2022/06/16 14:07:53;;;;;;;6.25;1.70;;;;;;;;;;5043868;28;20547;-72
2022/06/16 14:10:23;;;;;;;1.65;1.55;;;;;;;;;;5044019;28;20273;-72
2022/06/16 14:13:06;;;;;;;1.65;1.55;;;;;;;;;;5044220;28;20197;-72
2022/06/16 14:15:59;;;;;;;7.00;1.60;;;;;;;;;;5044135;28;20264;-72
2022/06/16 14:18:28;;;;;;;1.80;1.70;;;;;;;;;;5030866;28;20221;-72
2022/06/16 14:20:56;;;;;;;3.15;1.85;;;;;;;;;;5044073;28;20201;-71
2022/06/16 14:23:25;;;;;;;3.97;1.83;;;;;;;;;;5044107;28;20204;-72
2022/06/16 14:25:53;;;;;;;8.07;2.17;;;;;;;;;;5043971;28;20205;-72
2022/06/16 14:28:23;;;;;;;5.63;2.08;;;;;;;;;;5043674;28;20200;-72
2022/06/16 14:30:51;;;;;;;4.63;2.10;;;;;;;;;;5043701;28;20193;-72
2022/06/16 14:33:23;;;;;;;8.70;1.90;;;;;;;;;;5043789;28;20213;-72
2022/06/16 14:35:51;;;;;;;1.98;1.85;;;;;;;;;;5043642;28;20229;-72
2022/06/16 14:38:20;;;;;;;5.28;2.10;;;;;;;;;;5043189;28;20213;-72
2022/06/16 14:40:49;;;;;;;5.65;2.13;;;;;;;;;;5042959;28;20205;-72
2022/06/16 14:43:18;;;;;;;3.08;2.30;;;;;;;;;;5043092;28;20198;-72
2022/06/16 14:45:50;;;;;;;4.72;1.90;;;;;;;;;;5042816;28;20228;-72
2022/06/16 14:48:19;;;;;;;5.80;2.22;;;;;;;;;;5042896;28;20200;-72
2022/06/16 14:50:46;;;;;;;4.00;2.30;;;;;;;;;;5042978;28;20374;-72
2022/06/16 14:53:14;;;;;;;5.25;2.17;;;;;;;;;;5042845;28;20428;-72
2022/06/16 14:55:49;;;;;;;3.75;1.92;;;;;;;;;;5042677;28;20196;-72
2022/06/16 14:58:16;;;;;;;4.45;2.05;;;;;;;;;;5043054;28;20410;-72
2022/06/16 15:00:44;;;;;;;3.45;1.92;;;;;;;;;;5042821;28;20273;-72
2022/06/16 15:03:13;;;;;;;5.25;2.33;;;;;;;;;;5042949;28;20208;-72
2022/06/16 15:05:43;;;;;;;4.97;2.88;;;;;;;;;;5042569;28;20225;-72
2022/06/16 15:08:10;;;;;;;2.78;2.20;;;;;;;;;;5042502;28;20258;-72
2022/06/16 15:10:38;;;;;;;5.15;2.17;;;;;;;;;;5042484;28;20497;-72